sensor_id;sensor_type;location;lat;lon;timestamp;temperature;humidity
20759;DHT22;10539;53.686;9.158;2022-10-31T00:02:24;16.30;99.90
20759;DHT22;10539;53.686;9.158;2022-10-31T00:04:49;16.30;99.90
20759;DHT22;10539;53.686;9.158;2022-10-31T00:07:15;16.30;99.90
20759;DHT22;10539;53.686;9.158;2022-10-31T00:09:41;16.20;99.90
20759;DHT22;10539;53.686;9.158;2022-10-31T00:12:07;16.30;99.90
20759;DHT22;10539;53.686;9.158;2022-10-31T00:14:33;16.30;99.90
20759;DHT22;10539;53.686;9.158;2022-10-31T00:16:58;16.20;99.90
20759;DHT22;10539;53.686;9.158;2022-10-31T00:19:24;16.20;99.90
20759;DHT22;10539;53.686;9.158;2022-10-31T00:21:51;16.20;99.90
20759;DHT22;10539;53.686;9.158;2022-10-31T00:24:17;16.30;99.90
20759;DHT22;10539;53.686;9.158;2022-10-31T00:26:43;16.30;99.90
20759;DHT22;10539;53.686;9.158;2022-10-31T00:29:09;16.30;99.90
20759;DHT22;10539;53.686;9.158;2022-10-31T00:31:35;16.30;99.90
20759;DHT22;10539;53.686;9.158;2022-10-31T00:34:01;16.30;99.90
20759;DHT22;10539;53.686;9.158;2022-10-31T00:36:28;16.30;99.90
20759;DHT22;10539;53.686;9.158;2022-10-31T00:38:54;16.30;99.90
20759;DHT22;10539;53.686;9.158;2022-10-31T00:41:20;16.30;99.90
20759;DHT22;10539;53.686;9.158;2022-10-31T00:43:46;16.30;99.90
20759;DHT22;10539;53.686;9.158;2022-10-31T00:46:12;16.20;99.90
20759;DHT22;10539;53.686;9.158;2022-10-31T00:48:38;16.20;99.90
20759;DHT22;10539;53.686;9.158;2022-10-31T00:51:04;16.10;99.90
20759;DHT22;10539;53.686;9.158;2022-10-31T00:53:31;16.10;99.90
20759;DHT22;10539;53.686;9.158;2022-10-31T00:55:57;16.10;99.90
20759;DHT22;10539;53.686;9.158;2022-10-31T00:58:22;16.00;99.90
20759;DHT22;10539;53.686;9.158;2022-10-31T01:00:48;16.00;99.90
20759;DHT22;10539;53.686;9.158;2022-10-31T01:03:25;15.90;99.90
20759;DHT22;10539;53.686;9.158;2022-10-31T01:06:09;15.90;99.90
20759;DHT22;10539;53.686;9.158;2022-10-31T01:08:36;15.90;99.90
20759;DHT22;10539;53.686;9.158;2022-10-31T01:11:08;15.90;99.90
20759;DHT22;10539;53.686;9.158;2022-10-31T01:13:35;15.90;99.90
20759;DHT22;10539;53.686;9.158;2022-10-31T01:16:02;15.90;99.90
20759;DHT22;10539;53.686;9.158;2022-10-31T01:18:29;15.90;99.90
20759;DHT22;10539;53.686;9.158;2022-10-31T01:23:24;15.90;99.90
20759;DHT22;10539;53.686;9.158;2022-10-31T01:26:09;15.90;99.90
20759;DHT22;10539;53.686;9.158;2022-10-31T01:28:37;15.80;99.90
20759;DHT22;10539;53.686;9.158;2022-10-31T01:31:05;15.80;99.90
20759;DHT22;10539;53.686;9.158;2022-10-31T01:33:31;15.80;99.90
20759;DHT22;10539;53.686;9.158;2022-10-31T01:35:57;15.80;99.90
20759;DHT22;10539;53.686;9.158;2022-10-31T01:38:24;15.80;99.90
20759;DHT22;10539;53.686;9.158;2022-10-31T01:40:50;15.70;99.90
20759;DHT22;10539;53.686;9.158;2022-10-31T01:43:16;15.70;99.90
20759;DHT22;10539;53.686;9.158;2022-10-31T01:45:46;15.70;99.90
20759;DHT22;10539;53.686;9.158;2022-10-31T01:48:17;15.70;99.90
20759;DHT22;10539;53.686;9.158;2022-10-31T01:50:47;15.60;99.90
20759;DHT22;10539;53.686;9.158;2022-10-31T01:53:14;15.60;99.90
20759;DHT22;10539;53.686;9.158;2022-10-31T01:55:42;15.50;99.90
20759;DHT22;10539;53.686;9.158;2022-10-31T01:58:31;15.50;99.90
20759;DHT22;10539;53.686;9.158;2022-10-31T02:00:59;15.50;99.90
20759;DHT22;10539;53.686;9.158;2022-10-31T02:03:26;15.40;99.90
20759;DHT22;10539;53.686;9.158;2022-10-31T02:05:55;15.40;99.90
20759;DHT22;10539;53.686;9.158;2022-10-31T02:08:29;15.40;99.90
20759;DHT22;10539;53.686;9.158;2022-10-31T02:10:59;15.40;99.90
20759;DHT22;10539;53.686;9.158;2022-10-31T02:13:26;15.40;99.90
20759;DHT22;10539;53.686;9.158;2022-10-31T02:15:55;15.40;99.90
20759;DHT22;10539;53.686;9.158;2022-10-31T02:18:23;15.40;99.90
20759;DHT22;10539;53.686;9.158;2022-10-31T02:21:04;15.40;99.90
20759;DHT22;10539;53.686;9.158;2022-10-31T02:26:29;15.30;99.90
20759;DHT22;10539;53.686;9.158;2022-10-31T02:37:09;15.30;99.90
20759;DHT22;10539;53.686;9.158;2022-10-31T02:39:44;15.30;99.90
20759;DHT22;10539;53.686;9.158;2022-10-31T02:42:22;15.20;99.90
20759;DHT22;10539;53.686;9.158;2022-10-31T02:44:51;15.20;99.90
20759;DHT22;10539;53.686;9.158;2022-10-31T02:47:29;15.30;99.90
20759;DHT22;10539;53.686;9.158;2022-10-31T02:50:01;15.30;99.90
20759;DHT22;10539;53.686;9.158;2022-10-31T02:52:30;15.30;99.90
20759;DHT22;10539;53.686;9.158;2022-10-31T02:54:57;15.30;99.90
20759;DHT22;10539;53.686;9.158;2022-10-31T02:57:26;15.30;99.90
20759;DHT22;10539;53.686;9.158;2022-10-31T03:00:01;15.30;99.90
20759;DHT22;10539;53.686;9.158;2022-10-31T03:02:50;15.30;99.90
20759;DHT22;10539;53.686;9.158;2022-10-31T03:08:16;15.30;99.90
20759;DHT22;10539;53.686;9.158;2022-10-31T03:10:59;15.30;99.90
20759;DHT22;10539;53.686;9.158;2022-10-31T03:13:49;15.30;99.90
20759;DHT22;10539;53.686;9.158;2022-10-31T03:16:30;15.20;99.90
20759;DHT22;10539;53.686;9.158;2022-10-31T03:19:03;15.20;99.90
20759;DHT22;10539;53.686;9.158;2022-10-31T03:21:47;15.20;99.90
20759;DHT22;10539;53.686;9.158;2022-10-31T03:24:15;15.30;99.90
20759;DHT22;10539;53.686;9.158;2022-10-31T03:26:44;15.30;99.90
20759;DHT22;10539;53.686;9.158;2022-10-31T03:29:16;15.30;99.90
20759;DHT22;10539;53.686;9.158;2022-10-31T03:31:57;15.30;99.90
20759;DHT22;10539;53.686;9.158;2022-10-31T03:34:25;15.20;99.90
20759;DHT22;10539;53.686;9.158;2022-10-31T03:36:55;15.20;99.90
20759;DHT22;10539;53.686;9.158;2022-10-31T03:39:23;15.20;99.90
20759;DHT22;10539;53.686;9.158;2022-10-31T03:42:09;15.20;99.90
20759;DHT22;10539;53.686;9.158;2022-10-31T03:44:35;15.10;99.90
20759;DHT22;10539;53.686;9.158;2022-10-31T03:47:04;15.10;99.90
20759;DHT22;10539;53.686;9.158;2022-10-31T03:49:30;15.10;99.90
20759;DHT22;10539;53.686;9.158;2022-10-31T03:54:44;15.10;99.90
20759;DHT22;10539;53.686;9.158;2022-10-31T03:59:54;15.10;99.90
20759;DHT22;10539;53.686;9.158;2022-10-31T04:02:22;15.10;99.90
20759;DHT22;10539;53.686;9.158;2022-10-31T04:04:51;15.10;99.90
20759;DHT22;10539;53.686;9.158;2022-10-31T04:07:18;15.10;99.90
20759;DHT22;10539;53.686;9.158;2022-10-31T04:09:46;15.10;99.90
20759;DHT22;10539;53.686;9.158;2022-10-31T04:12:15;15.00;99.90
20759;DHT22;10539;53.686;9.158;2022-10-31T04:14:43;15.00;99.90
20759;DHT22;10539;53.686;9.158;2022-10-31T04:17:14;15.00;99.90
20759;DHT22;10539;53.686;9.158;2022-10-31T04:19:41;15.00;99.90
20759;DHT22;10539;53.686;9.158;2022-10-31T04:22:06;15.00;99.90
20759;DHT22;10539;53.686;9.158;2022-10-31T04:24:32;15.00;99.90
20759;DHT22;10539;53.686;9.158;2022-10-31T04:26:58;14.90;99.90
20759;DHT22;10539;53.686;9.158;2022-10-31T04:29:24;15.00;99.90
20759;DHT22;10539;53.686;9.158;2022-10-31T04:31:50;15.00;99.90
20759;DHT22;10539;53.686;9.158;2022-10-31T04:34:15;15.00;99.90
20759;DHT22;10539;53.686;9.158;2022-10-31T04:36:41;14.90;99.90
20759;DHT22;10539;53.686;9.158;2022-10-31T04:39:06;14.90;99.90
20759;DHT22;10539;53.686;9.158;2022-10-31T04:41:32;14.90;99.90
20759;DHT22;10539;53.686;9.158;2022-10-31T04:43:58;14.90;99.90
20759;DHT22;10539;53.686;9.158;2022-10-31T04:46:23;14.90;99.90
20759;DHT22;10539;53.686;9.158;2022-10-31T04:48:49;14.90;99.90
20759;DHT22;10539;53.686;9.158;2022-10-31T04:51:15;14.80;99.90
20759;DHT22;10539;53.686;9.158;2022-10-31T04:53:40;14.80;99.90
20759;DHT22;10539;53.686;9.158;2022-10-31T04:56:06;14.80;99.90
20759;DHT22;10539;53.686;9.158;2022-10-31T04:58:32;14.80;99.90
20759;DHT22;10539;53.686;9.158;2022-10-31T05:00:58;14.80;99.90
20759;DHT22;10539;53.686;9.158;2022-10-31T05:03:24;14.80;99.90
20759;DHT22;10539;53.686;9.158;2022-10-31T05:05:49;14.80;99.90
20759;DHT22;10539;53.686;9.158;2022-10-31T05:08:15;14.80;99.90
20759;DHT22;10539;53.686;9.158;2022-10-31T05:10:41;14.80;99.90
20759;DHT22;10539;53.686;9.158;2022-10-31T05:13:07;14.70;99.90
20759;DHT22;10539;53.686;9.158;2022-10-31T05:15:33;14.70;99.90
20759;DHT22;10539;53.686;9.158;2022-10-31T05:17:59;14.70;99.90
20759;DHT22;10539;53.686;9.158;2022-10-31T05:20:27;14.70;99.90
20759;DHT22;10539;53.686;9.158;2022-10-31T05:22:56;14.80;99.90
20759;DHT22;10539;53.686;9.158;2022-10-31T05:25:24;14.80;99.90
20759;DHT22;10539;53.686;9.158;2022-10-31T05:27:52;14.80;99.90
20759;DHT22;10539;53.686;9.158;2022-10-31T05:30:22;14.80;99.90
20759;DHT22;10539;53.686;9.158;2022-10-31T05:32:50;14.70;99.90
20759;DHT22;10539;53.686;9.158;2022-10-31T05:35:21;14.70;99.90
20759;DHT22;10539;53.686;9.158;2022-10-31T05:37:46;14.70;99.90
20759;DHT22;10539;53.686;9.158;2022-10-31T05:40:14;14.70;99.90
20759;DHT22;10539;53.686;9.158;2022-10-31T05:42:41;14.70;99.90
20759;DHT22;10539;53.686;9.158;2022-10-31T05:45:13;14.70;99.90
20759;DHT22;10539;53.686;9.158;2022-10-31T05:47:39;14.70;99.90
20759;DHT22;10539;53.686;9.158;2022-10-31T05:50:06;14.70;99.90
20759;DHT22;10539;53.686;9.158;2022-10-31T05:52:32;14.70;99.90
20759;DHT22;10539;53.686;9.158;2022-10-31T05:54:57;14.60;99.90
20759;DHT22;10539;53.686;9.158;2022-10-31T05:57:23;14.60;99.90
20759;DHT22;10539;53.686;9.158;2022-10-31T05:59:49;14.60;99.90
20759;DHT22;10539;53.686;9.158;2022-10-31T06:02:19;14.60;99.90
20759;DHT22;10539;53.686;9.158;2022-10-31T06:04:45;14.50;99.90
20759;DHT22;10539;53.686;9.158;2022-10-31T06:07:10;14.40;99.90
20759;DHT22;10539;53.686;9.158;2022-10-31T06:09:36;14.30;99.90
20759;DHT22;10539;53.686;9.158;2022-10-31T06:12:02;14.30;99.90
20759;DHT22;10539;53.686;9.158;2022-10-31T06:14:29;14.20;99.90
20759;DHT22;10539;53.686;9.158;2022-10-31T06:16:55;14.10;99.90
20759;DHT22;10539;53.686;9.158;2022-10-31T06:19:21;14.10;99.90
20759;DHT22;10539;53.686;9.158;2022-10-31T06:21:47;14.00;99.90
20759;DHT22;10539;53.686;9.158;2022-10-31T06:24:13;13.90;99.90
20759;DHT22;10539;53.686;9.158;2022-10-31T06:26:40;13.90;99.90
20759;DHT22;10539;53.686;9.158;2022-10-31T06:29:06;13.90;99.90
20759;DHT22;10539;53.686;9.158;2022-10-31T06:31:32;13.90;99.90
20759;DHT22;10539;53.686;9.158;2022-10-31T06:33:58;13.90;99.90
20759;DHT22;10539;53.686;9.158;2022-10-31T06:36:23;13.90;99.90
20759;DHT22;10539;53.686;9.158;2022-10-31T06:38:49;14.00;99.90
20759;DHT22;10539;53.686;9.158;2022-10-31T06:41:15;14.00;99.90
20759;DHT22;10539;53.686;9.158;2022-10-31T06:43:41;14.00;99.90
20759;DHT22;10539;53.686;9.158;2022-10-31T06:46:06;14.00;99.90
20759;DHT22;10539;53.686;9.158;2022-10-31T06:48:32;14.00;99.90
20759;DHT22;10539;53.686;9.158;2022-10-31T06:50:59;14.00;99.90
20759;DHT22;10539;53.686;9.158;2022-10-31T06:53:26;14.00;99.90
20759;DHT22;10539;53.686;9.158;2022-10-31T06:55:52;14.00;99.90
20759;DHT22;10539;53.686;9.158;2022-10-31T06:58:17;13.90;99.90
20759;DHT22;10539;53.686;9.158;2022-10-31T07:00:43;13.90;99.90
20759;DHT22;10539;53.686;9.158;2022-10-31T07:03:11;13.90;99.90
20759;DHT22;10539;53.686;9.158;2022-10-31T07:05:37;13.90;99.90
20759;DHT22;10539;53.686;9.158;2022-10-31T07:08:06;13.90;99.90
20759;DHT22;10539;53.686;9.158;2022-10-31T07:10:33;13.90;99.90
20759;DHT22;10539;53.686;9.158;2022-10-31T07:13:02;13.90;99.90
20759;DHT22;10539;53.686;9.158;2022-10-31T07:15:30;13.90;99.90
20759;DHT22;10539;53.686;9.158;2022-10-31T07:18:05;13.90;99.90
20759;DHT22;10539;53.686;9.158;2022-10-31T07:20:31;13.90;99.90
20759;DHT22;10539;53.686;9.158;2022-10-31T07:22:57;13.90;99.90
20759;DHT22;10539;53.686;9.158;2022-10-31T07:25:23;13.90;99.90
20759;DHT22;10539;53.686;9.158;2022-10-31T07:27:50;13.90;99.90
20759;DHT22;10539;53.686;9.158;2022-10-31T07:30:16;13.90;99.90
20759;DHT22;10539;53.686;9.158;2022-10-31T07:32:46;13.90;99.90
20759;DHT22;10539;53.686;9.158;2022-10-31T07:35:18;13.90;99.90
20759;DHT22;10539;53.686;9.158;2022-10-31T07:37:44;13.90;99.90
20759;DHT22;10539;53.686;9.158;2022-10-31T07:40:10;13.90;99.90
20759;DHT22;10539;53.686;9.158;2022-10-31T07:42:42;13.90;99.90
20759;DHT22;10539;53.686;9.158;2022-10-31T07:45:10;13.90;99.90
20759;DHT22;10539;53.686;9.158;2022-10-31T07:47:43;13.90;99.90
20759;DHT22;10539;53.686;9.158;2022-10-31T07:50:11;13.90;99.90
20759;DHT22;10539;53.686;9.158;2022-10-31T07:52:38;13.90;99.90
20759;DHT22;10539;53.686;9.158;2022-10-31T07:55:04;13.90;99.90
20759;DHT22;10539;53.686;9.158;2022-10-31T07:57:31;13.90;99.90
20759;DHT22;10539;53.686;9.158;2022-10-31T07:59:57;13.90;99.90
20759;DHT22;10539;53.686;9.158;2022-10-31T08:02:23;13.90;99.90
20759;DHT22;10539;53.686;9.158;2022-10-31T08:04:49;13.90;99.90
20759;DHT22;10539;53.686;9.158;2022-10-31T08:07:16;13.90;99.90
20759;DHT22;10539;53.686;9.158;2022-10-31T08:09:42;13.90;99.90
20759;DHT22;10539;53.686;9.158;2022-10-31T08:12:07;13.90;99.90
20759;DHT22;10539;53.686;9.158;2022-10-31T08:14:33;13.90;99.90
20759;DHT22;10539;53.686;9.158;2022-10-31T08:16:59;14.00;99.90
20759;DHT22;10539;53.686;9.158;2022-10-31T08:19:24;14.00;99.90
20759;DHT22;10539;53.686;9.158;2022-10-31T08:21:51;14.00;99.90
20759;DHT22;10539;53.686;9.158;2022-10-31T08:24:17;14.10;99.90
20759;DHT22;10539;53.686;9.158;2022-10-31T08:26:43;14.10;99.90
20759;DHT22;10539;53.686;9.158;2022-10-31T08:29:09;14.20;99.90
20759;DHT22;10539;53.686;9.158;2022-10-31T08:31:35;14.20;99.90
20759;DHT22;10539;53.686;9.158;2022-10-31T08:34:01;14.20;99.90
20759;DHT22;10539;53.686;9.158;2022-10-31T08:36:28;14.20;99.90
20759;DHT22;10539;53.686;9.158;2022-10-31T08:38:55;14.30;99.90
20759;DHT22;10539;53.686;9.158;2022-10-31T08:41:21;14.30;99.90
20759;DHT22;10539;53.686;9.158;2022-10-31T08:43:47;14.30;99.90
20759;DHT22;10539;53.686;9.158;2022-10-31T08:46:13;14.30;99.90
20759;DHT22;10539;53.686;9.158;2022-10-31T08:48:38;14.40;99.90
20759;DHT22;10539;53.686;9.158;2022-10-31T08:51:05;14.40;99.90
20759;DHT22;10539;53.686;9.158;2022-10-31T08:53:31;14.40;99.90
20759;DHT22;10539;53.686;9.158;2022-10-31T08:55:57;14.40;99.90
20759;DHT22;10539;53.686;9.158;2022-10-31T08:58:23;14.40;99.90
20759;DHT22;10539;53.686;9.158;2022-10-31T09:00:51;14.50;99.90
20759;DHT22;10539;53.686;9.158;2022-10-31T09:03:28;14.60;99.90
20759;DHT22;10539;53.686;9.158;2022-10-31T09:05:59;14.70;99.90
20759;DHT22;10539;53.686;9.158;2022-10-31T09:08:25;14.80;99.90
20759;DHT22;10539;53.686;9.158;2022-10-31T09:10:51;14.80;99.90
20759;DHT22;10539;53.686;9.158;2022-10-31T09:13:19;14.80;99.90
20759;DHT22;10539;53.686;9.158;2022-10-31T09:15:47;14.80;99.90
20759;DHT22;10539;53.686;9.158;2022-10-31T09:18:14;14.70;99.90
20759;DHT22;10539;53.686;9.158;2022-10-31T09:20:41;14.70;99.90
20759;DHT22;10539;53.686;9.158;2022-10-31T09:25:39;14.70;99.90
20759;DHT22;10539;53.686;9.158;2022-10-31T09:28:06;14.70;99.90
20759;DHT22;10539;53.686;9.158;2022-10-31T09:30:34;14.70;99.90
20759;DHT22;10539;53.686;9.158;2022-10-31T09:33:06;14.70;99.90
20759;DHT22;10539;53.686;9.158;2022-10-31T09:35:32;14.70;99.90
20759;DHT22;10539;53.686;9.158;2022-10-31T09:38:00;14.70;99.90
20759;DHT22;10539;53.686;9.158;2022-10-31T09:40:47;14.80;99.90
20759;DHT22;10539;53.686;9.158;2022-10-31T09:46:08;14.90;99.90
20759;DHT22;10539;53.686;9.158;2022-10-31T09:51:35;15.00;99.90
20759;DHT22;10539;53.686;9.158;2022-10-31T09:56:47;15.30;99.90
20759;DHT22;10539;53.686;9.158;2022-10-31T09:59:31;15.20;99.90
20759;DHT22;10539;53.686;9.158;2022-10-31T10:02:46;15.30;99.90
20759;DHT22;10539;53.686;9.158;2022-10-31T10:05:00;15.30;99.90
20759;DHT22;10539;53.686;9.158;2022-10-31T10:08:10;15.40;99.90
20759;DHT22;10539;53.686;9.158;2022-10-31T10:11:07;15.40;99.90
20759;DHT22;10539;53.686;9.158;2022-10-31T10:17:35;15.30;99.90
20759;DHT22;10539;53.686;9.158;2022-10-31T10:19:50;15.40;99.90
20759;DHT22;10539;53.686;9.158;2022-10-31T10:22:39;15.50;99.90
20759;DHT22;10539;53.686;9.158;2022-10-31T10:30:36;15.70;99.90
20759;DHT22;10539;53.686;9.158;2022-10-31T10:33:09;15.70;99.90
20759;DHT22;10539;53.686;9.158;2022-10-31T10:35:47;15.80;99.90
20759;DHT22;10539;53.686;9.158;2022-10-31T10:40:43;15.70;99.90
20759;DHT22;10539;53.686;9.158;2022-10-31T10:43:31;15.70;99.90
20759;DHT22;10539;53.686;9.158;2022-10-31T10:49:17;15.70;99.90
20759;DHT22;10539;53.686;9.158;2022-10-31T10:54:42;15.70;99.90
20759;DHT22;10539;53.686;9.158;2022-10-31T10:57:22;15.80;99.90
20759;DHT22;10539;53.686;9.158;2022-10-31T10:59:48;15.80;99.90
20759;DHT22;10539;53.686;9.158;2022-10-31T11:02:20;15.80;99.90
20759;DHT22;10539;53.686;9.158;2022-10-31T11:04:55;15.80;99.90
20759;DHT22;10539;53.686;9.158;2022-10-31T11:07:22;15.80;99.90
20759;DHT22;10539;53.686;9.158;2022-10-31T11:09:48;15.80;99.90
20759;DHT22;10539;53.686;9.158;2022-10-31T11:12:22;15.80;99.90
20759;DHT22;10539;53.686;9.158;2022-10-31T11:14:55;15.80;99.90
20759;DHT22;10539;53.686;9.158;2022-10-31T11:17:33;15.80;99.90
20759;DHT22;10539;53.686;9.158;2022-10-31T11:23:05;15.80;99.90
20759;DHT22;10539;53.686;9.158;2022-10-31T11:25:31;15.80;99.90
20759;DHT22;10539;53.686;9.158;2022-10-31T11:30:27;16.00;99.90
20759;DHT22;10539;53.686;9.158;2022-10-31T11:32:53;16.10;99.90
20759;DHT22;10539;53.686;9.158;2022-10-31T11:35:21;16.10;99.90
20759;DHT22;10539;53.686;9.158;2022-10-31T11:37:49;16.10;99.90
20759;DHT22;10539;53.686;9.158;2022-10-31T11:40:19;16.10;99.90
20759;DHT22;10539;53.686;9.158;2022-10-31T11:42:46;16.00;99.90
20759;DHT22;10539;53.686;9.158;2022-10-31T11:45:17;16.10;99.90
20759;DHT22;10539;53.686;9.158;2022-10-31T11:47:46;16.00;99.90
20759;DHT22;10539;53.686;9.158;2022-10-31T11:50:19;16.00;99.90
20759;DHT22;10539;53.686;9.158;2022-10-31T11:52:46;16.00;99.90
20759;DHT22;10539;53.686;9.158;2022-10-31T11:57:49;16.10;99.90
20759;DHT22;10539;53.686;9.158;2022-10-31T12:00:37;16.10;99.90
20759;DHT22;10539;53.686;9.158;2022-10-31T12:06:08;16.20;99.90
20759;DHT22;10539;53.686;9.158;2022-10-31T12:08:38;16.20;99.90
20759;DHT22;10539;53.686;9.158;2022-10-31T12:17:20;16.30;99.90
20759;DHT22;10539;53.686;9.158;2022-10-31T12:22:56;16.30;99.90
20759;DHT22;10539;53.686;9.158;2022-10-31T12:25:41;16.30;99.90
20759;DHT22;10539;53.686;9.158;2022-10-31T12:31:03;16.40;99.90
20759;DHT22;10539;53.686;9.158;2022-10-31T12:39:23;16.30;99.90
20759;DHT22;10539;53.686;9.158;2022-10-31T12:47:44;16.30;99.90
20759;DHT22;10539;53.686;9.158;2022-10-31T12:50:52;16.30;99.90
20759;DHT22;10539;53.686;9.158;2022-10-31T12:58:49;16.20;99.90
20759;DHT22;10539;53.686;9.158;2022-10-31T13:01:22;16.20;99.90
20759;DHT22;10539;53.686;9.158;2022-10-31T13:03:57;16.10;99.90
20759;DHT22;10539;53.686;9.158;2022-10-31T13:06:30;16.10;99.90
20759;DHT22;10539;53.686;9.158;2022-10-31T13:09:02;16.10;99.90
20759;DHT22;10539;53.686;9.158;2022-10-31T13:11:32;16.10;99.90
20759;DHT22;10539;53.686;9.158;2022-10-31T13:14:22;16.10;99.90
20759;DHT22;10539;53.686;9.158;2022-10-31T13:16:49;16.10;99.90
20759;DHT22;10539;53.686;9.158;2022-10-31T13:19:25;16.20;99.90
20759;DHT22;10539;53.686;9.158;2022-10-31T13:22:18;16.20;99.90
20759;DHT22;10539;53.686;9.158;2022-10-31T13:27:59;16.20;99.90
20759;DHT22;10539;53.686;9.158;2022-10-31T13:30:29;16.20;99.90
20759;DHT22;10539;53.686;9.158;2022-10-31T13:33:15;16.10;99.90
20759;DHT22;10539;53.686;9.158;2022-10-31T13:46:41;16.10;99.90
20759;DHT22;10539;53.686;9.158;2022-10-31T13:51:52;16.00;99.90
20759;DHT22;10539;53.686;9.158;2022-10-31T13:54:31;16.00;99.90
20759;DHT22;10539;53.686;9.158;2022-10-31T13:56:57;15.90;99.90
20759;DHT22;10539;53.686;9.158;2022-10-31T13:59:25;15.80;99.90
20759;DHT22;10539;53.686;9.158;2022-10-31T14:04:26;15.80;99.90
20759;DHT22;10539;53.686;9.158;2022-10-31T14:07:11;15.80;99.90
20759;DHT22;10539;53.686;9.158;2022-10-31T14:09:48;15.80;99.90
20759;DHT22;10539;53.686;9.158;2022-10-31T14:12:25;15.80;99.90
20759;DHT22;10539;53.686;9.158;2022-10-31T14:14:59;15.80;99.90
20759;DHT22;10539;53.686;9.158;2022-10-31T14:17:28;15.70;99.90
20759;DHT22;10539;53.686;9.158;2022-10-31T14:20:33;15.70;99.90
20759;DHT22;10539;53.686;9.158;2022-10-31T14:23:30;15.70;99.90
20759;DHT22;10539;53.686;9.158;2022-10-31T14:28:54;15.70;99.90
20759;DHT22;10539;53.686;9.158;2022-10-31T14:34:28;15.70;99.90
20759;DHT22;10539;53.686;9.158;2022-10-31T14:40:01;15.60;99.90
20759;DHT22;10539;53.686;9.158;2022-10-31T14:50:53;15.60;99.90
20759;DHT22;10539;53.686;9.158;2022-10-31T14:53:41;15.60;99.90
20759;DHT22;10539;53.686;9.158;2022-10-31T14:56:11;15.50;99.90
20759;DHT22;10539;53.686;9.158;2022-10-31T14:58:43;15.40;99.90
20759;DHT22;10539;53.686;9.158;2022-10-31T15:01:25;15.40;99.90
20759;DHT22;10539;53.686;9.158;2022-10-31T15:03:53;15.30;99.90
20759;DHT22;10539;53.686;9.158;2022-10-31T15:06:21;15.30;99.90
20759;DHT22;10539;53.686;9.158;2022-10-31T15:08:53;15.30;99.90
20759;DHT22;10539;53.686;9.158;2022-10-31T15:11:23;15.20;99.90
20759;DHT22;10539;53.686;9.158;2022-10-31T15:16:24;15.10;99.90
20759;DHT22;10539;53.686;9.158;2022-10-31T15:18:58;15.10;99.90
20759;DHT22;10539;53.686;9.158;2022-10-31T15:21:26;15.10;99.90
20759;DHT22;10539;53.686;9.158;2022-10-31T15:23:56;15.00;99.90
20759;DHT22;10539;53.686;9.158;2022-10-31T15:26:25;15.00;99.90
20759;DHT22;10539;53.686;9.158;2022-10-31T15:29:11;15.00;99.90
20759;DHT22;10539;53.686;9.158;2022-10-31T15:31:37;15.00;99.90
20759;DHT22;10539;53.686;9.158;2022-10-31T15:34:06;15.00;99.90
20759;DHT22;10539;53.686;9.158;2022-10-31T15:36:37;15.00;99.90
20759;DHT22;10539;53.686;9.158;2022-10-31T15:39:03;15.00;99.90
20759;DHT22;10539;53.686;9.158;2022-10-31T15:44:18;15.00;99.90
20759;DHT22;10539;53.686;9.158;2022-10-31T15:46:53;15.00;99.90
20759;DHT22;10539;53.686;9.158;2022-10-31T15:49:38;14.90;99.90
20759;DHT22;10539;53.686;9.158;2022-10-31T15:54:50;14.80;99.90
20759;DHT22;10539;53.686;9.158;2022-10-31T15:57:17;14.80;99.90
20759;DHT22;10539;53.686;9.158;2022-10-31T15:59:46;14.70;99.90
20759;DHT22;10539;53.686;9.158;2022-10-31T16:02:13;14.60;99.90
20759;DHT22;10539;53.686;9.158;2022-10-31T16:04:56;14.60;99.90
20759;DHT22;10539;53.686;9.158;2022-10-31T16:07:23;14.60;99.90
20759;DHT22;10539;53.686;9.158;2022-10-31T16:10:00;14.50;99.90
20759;DHT22;10539;53.686;9.158;2022-10-31T16:12:34;14.50;99.90
20759;DHT22;10539;53.686;9.158;2022-10-31T16:15:01;14.50;99.90
20759;DHT22;10539;53.686;9.158;2022-10-31T16:17:28;14.40;99.90
20759;DHT22;10539;53.686;9.158;2022-10-31T16:20:00;14.40;99.90
20759;DHT22;10539;53.686;9.158;2022-10-31T16:22:37;14.40;99.90
20759;DHT22;10539;53.686;9.158;2022-10-31T16:25:13;14.60;99.90
20759;DHT22;10539;53.686;9.158;2022-10-31T16:27:46;14.70;99.90
20759;DHT22;10539;53.686;9.158;2022-10-31T16:30:48;14.80;99.90
20759;DHT22;10539;53.686;9.158;2022-10-31T16:33:28;14.80;99.90
20759;DHT22;10539;53.686;9.158;2022-10-31T16:35:55;14.80;99.90
20759;DHT22;10539;53.686;9.158;2022-10-31T16:38:21;14.60;99.90
20759;DHT22;10539;53.686;9.158;2022-10-31T16:40:47;14.50;99.90
20759;DHT22;10539;53.686;9.158;2022-10-31T16:43:15;14.40;99.90
20759;DHT22;10539;53.686;9.158;2022-10-31T16:45:47;14.40;99.90
20759;DHT22;10539;53.686;9.158;2022-10-31T16:48:18;14.40;99.90
20759;DHT22;10539;53.686;9.158;2022-10-31T16:50:46;14.40;99.90
20759;DHT22;10539;53.686;9.158;2022-10-31T16:53:13;14.40;99.90
20759;DHT22;10539;53.686;9.158;2022-10-31T16:58:24;14.30;99.90
20759;DHT22;10539;53.686;9.158;2022-10-31T17:00:51;14.30;99.90
20759;DHT22;10539;53.686;9.158;2022-10-31T17:03:17;14.30;99.90
20759;DHT22;10539;53.686;9.158;2022-10-31T17:05:44;14.30;99.90
20759;DHT22;10539;53.686;9.158;2022-10-31T17:08:10;14.40;99.90
20759;DHT22;10539;53.686;9.158;2022-10-31T17:10:36;14.40;99.90
20759;DHT22;10539;53.686;9.158;2022-10-31T17:13:03;14.30;99.90
20759;DHT22;10539;53.686;9.158;2022-10-31T17:15:37;14.30;99.90
20759;DHT22;10539;53.686;9.158;2022-10-31T17:18:05;14.20;99.90
20759;DHT22;10539;53.686;9.158;2022-10-31T17:20:31;14.20;99.90
20759;DHT22;10539;53.686;9.158;2022-10-31T17:22:58;14.20;99.90
20759;DHT22;10539;53.686;9.158;2022-10-31T17:25:26;14.10;99.90
20759;DHT22;10539;53.686;9.158;2022-10-31T17:27:53;14.10;99.90
20759;DHT22;10539;53.686;9.158;2022-10-31T17:30:20;14.10;99.90
20759;DHT22;10539;53.686;9.158;2022-10-31T17:32:47;14.10;99.90
20759;DHT22;10539;53.686;9.158;2022-10-31T17:35:14;14.10;99.90
20759;DHT22;10539;53.686;9.158;2022-10-31T17:37:41;14.10;99.90
20759;DHT22;10539;53.686;9.158;2022-10-31T17:40:11;14.10;99.90
20759;DHT22;10539;53.686;9.158;2022-10-31T17:42:38;14.10;99.90
20759;DHT22;10539;53.686;9.158;2022-10-31T17:45:04;14.10;99.90
20759;DHT22;10539;53.686;9.158;2022-10-31T17:47:31;14.00;99.90
20759;DHT22;10539;53.686;9.158;2022-10-31T17:49:56;14.00;99.90
20759;DHT22;10539;53.686;9.158;2022-10-31T17:52:22;14.00;99.90
20759;DHT22;10539;53.686;9.158;2022-10-31T17:54:48;14.00;99.90
20759;DHT22;10539;53.686;9.158;2022-10-31T17:57:14;14.00;99.90
20759;DHT22;10539;53.686;9.158;2022-10-31T17:59:41;14.00;99.90
20759;DHT22;10539;53.686;9.158;2022-10-31T18:02:09;14.00;99.90
20759;DHT22;10539;53.686;9.158;2022-10-31T18:04:35;14.10;99.90
20759;DHT22;10539;53.686;9.158;2022-10-31T18:07:01;14.10;99.90